sensor_id;sensor_type;location;lat;lon;timestamp;temperature;humidity
1626;DHT22;806;48.770;9.156;2022-11-23T00:01:56;5.50;99.90
1626;DHT22;806;48.770;9.156;2022-11-23T00:04:23;5.50;99.90
1626;DHT22;806;48.770;9.156;2022-11-23T00:06:50;5.50;99.90
1626;DHT22;806;48.770;9.156;2022-11-23T00:09:17;5.40;99.90
1626;DHT22;806;48.770;9.156;2022-11-23T00:11:44;5.40;99.90
1626;DHT22;806;48.770;9.156;2022-11-23T00:14:12;5.40;99.90
1626;DHT22;806;48.770;9.156;2022-11-23T00:16:39;5.40;99.90
1626;DHT22;806;48.770;9.156;2022-11-23T00:19:06;5.30;99.90
1626;DHT22;806;48.770;9.156;2022-11-23T00:21:33;5.40;99.90
1626;DHT22;806;48.770;9.156;2022-11-23T00:24:00;5.30;99.90
1626;DHT22;806;48.770;9.156;2022-11-23T00:26:27;5.40;99.90
1626;DHT22;806;48.770;9.156;2022-11-23T00:28:54;5.30;99.90
1626;DHT22;806;48.770;9.156;2022-11-23T00:31:22;5.30;99.90
1626;DHT22;806;48.770;9.156;2022-11-23T00:33:51;5.30;99.90
1626;DHT22;806;48.770;9.156;2022-11-23T00:36:19;5.20;99.90
1626;DHT22;806;48.770;9.156;2022-11-23T00:38:47;5.20;99.90
1626;DHT22;806;48.770;9.156;2022-11-23T00:41:15;5.20;99.90
1626;DHT22;806;48.770;9.156;2022-11-23T00:43:43;5.30;99.90
1626;DHT22;806;48.770;9.156;2022-11-23T00:46:12;5.20;99.90
1626;DHT22;806;48.770;9.156;2022-11-23T00:48:41;5.20;99.90
1626;DHT22;806;48.770;9.156;2022-11-23T00:51:10;5.20;99.90
1626;DHT22;806;48.770;9.156;2022-11-23T00:53:37;5.20;99.90
1626;DHT22;806;48.770;9.156;2022-11-23T00:56:04;5.20;99.90
1626;DHT22;806;48.770;9.156;2022-11-23T00:58:31;5.10;99.90
1626;DHT22;806;48.770;9.156;2022-11-23T01:01:00;5.20;99.90
1626;DHT22;806;48.770;9.156;2022-11-23T01:03:28;5.20;99.90
1626;DHT22;806;48.770;9.156;2022-11-23T01:06:01;5.20;99.90
1626;DHT22;806;48.770;9.156;2022-11-23T01:08:28;5.30;99.90
1626;DHT22;806;48.770;9.156;2022-11-23T01:10:58;5.30;99.90
1626;DHT22;806;48.770;9.156;2022-11-23T01:13:25;5.30;99.90
1626;DHT22;806;48.770;9.156;2022-11-23T01:15:52;5.30;99.90
1626;DHT22;806;48.770;9.156;2022-11-23T01:18:19;5.30;99.90
1626;DHT22;806;48.770;9.156;2022-11-23T01:20:46;5.20;99.90
1626;DHT22;806;48.770;9.156;2022-11-23T01:23:14;5.30;99.90
1626;DHT22;806;48.770;9.156;2022-11-23T01:25:41;5.20;99.90
1626;DHT22;806;48.770;9.156;2022-11-23T01:28:08;5.20;99.90
1626;DHT22;806;48.770;9.156;2022-11-23T01:30:35;5.10;99.90
1626;DHT22;806;48.770;9.156;2022-11-23T01:33:02;5.10;99.90
1626;DHT22;806;48.770;9.156;2022-11-23T01:35:29;5.10;99.90
1626;DHT22;806;48.770;9.156;2022-11-23T01:37:56;5.10;99.90
1626;DHT22;806;48.770;9.156;2022-11-23T01:40:24;5.10;99.90
1626;DHT22;806;48.770;9.156;2022-11-23T01:42:53;5.00;99.90
1626;DHT22;806;48.770;9.156;2022-11-23T01:45:33;5.00;99.90
1626;DHT22;806;48.770;9.156;2022-11-23T01:48:00;5.00;99.90
1626;DHT22;806;48.770;9.156;2022-11-23T01:50:28;5.00;99.90
1626;DHT22;806;48.770;9.156;2022-11-23T01:52:56;5.00;99.90
1626;DHT22;806;48.770;9.156;2022-11-23T01:55:25;5.00;99.90
1626;DHT22;806;48.770;9.156;2022-11-23T01:57:53;5.00;99.90
1626;DHT22;806;48.770;9.156;2022-11-23T02:00:20;5.00;99.90
1626;DHT22;806;48.770;9.156;2022-11-23T02:02:52;5.10;99.90
1626;DHT22;806;48.770;9.156;2022-11-23T02:05:26;5.10;99.90
1626;DHT22;806;48.770;9.156;2022-11-23T02:07:54;5.10;99.90
1626;DHT22;806;48.770;9.156;2022-11-23T02:10:21;5.10;99.90
1626;DHT22;806;48.770;9.156;2022-11-23T02:12:50;5.10;99.90
1626;DHT22;806;48.770;9.156;2022-11-23T02:15:16;5.10;99.90
1626;DHT22;806;48.770;9.156;2022-11-23T02:17:43;5.20;99.90
1626;DHT22;806;48.770;9.156;2022-11-23T02:20:14;5.20;99.90
1626;DHT22;806;48.770;9.156;2022-11-23T02:22:48;5.20;99.90
1626;DHT22;806;48.770;9.156;2022-11-23T02:25:24;5.30;99.90
1626;DHT22;806;48.770;9.156;2022-11-23T02:27:56;5.30;99.90
1626;DHT22;806;48.770;9.156;2022-11-23T02:30:23;5.30;99.90
1626;DHT22;806;48.770;9.156;2022-11-23T02:32:50;5.30;99.90
1626;DHT22;806;48.770;9.156;2022-11-23T02:35:17;5.20;99.90
1626;DHT22;806;48.770;9.156;2022-11-23T02:37:44;5.30;99.90
1626;DHT22;806;48.770;9.156;2022-11-23T02:40:19;5.30;99.90
1626;DHT22;806;48.770;9.156;2022-11-23T02:42:47;5.30;99.90
1626;DHT22;806;48.770;9.156;2022-11-23T02:45:23;5.30;99.90
1626;DHT22;806;48.770;9.156;2022-11-23T02:47:53;5.30;99.90
1626;DHT22;806;48.770;9.156;2022-11-23T02:50:19;5.50;99.90
1626;DHT22;806;48.770;9.156;2022-11-23T02:52:46;5.50;99.90
1626;DHT22;806;48.770;9.156;2022-11-23T02:55:13;5.50;99.90
1626;DHT22;806;48.770;9.156;2022-11-23T02:57:40;5.40;99.90
1626;DHT22;806;48.770;9.156;2022-11-23T03:00:08;5.30;99.90
1626;DHT22;806;48.770;9.156;2022-11-23T03:02:37;5.30;99.90
1626;DHT22;806;48.770;9.156;2022-11-23T03:05:04;5.30;99.90
1626;DHT22;806;48.770;9.156;2022-11-23T03:07:31;5.30;99.90
1626;DHT22;806;48.770;9.156;2022-11-23T03:09:58;5.30;99.90
1626;DHT22;806;48.770;9.156;2022-11-23T03:12:25;5.30;99.90
1626;DHT22;806;48.770;9.156;2022-11-23T03:14:52;5.30;99.90
1626;DHT22;806;48.770;9.156;2022-11-23T03:17:19;5.30;99.90
1626;DHT22;806;48.770;9.156;2022-11-23T03:19:47;5.40;99.90
1626;DHT22;806;48.770;9.156;2022-11-23T03:22:14;5.40;99.90
1626;DHT22;806;48.770;9.156;2022-11-23T03:24:41;5.40;99.90
1626;DHT22;806;48.770;9.156;2022-11-23T03:27:07;5.50;99.90
1626;DHT22;806;48.770;9.156;2022-11-23T03:29:34;5.50;99.90
1626;DHT22;806;48.770;9.156;2022-11-23T03:32:01;5.50;99.90
1626;DHT22;806;48.770;9.156;2022-11-23T03:34:28;5.50;99.90
1626;DHT22;806;48.770;9.156;2022-11-23T03:36:56;5.50;99.90
1626;DHT22;806;48.770;9.156;2022-11-23T03:39:23;5.50;99.90
1626;DHT22;806;48.770;9.156;2022-11-23T03:41:50;5.50;99.90
1626;DHT22;806;48.770;9.156;2022-11-23T03:44:17;5.60;99.90
1626;DHT22;806;48.770;9.156;2022-11-23T03:46:43;5.60;99.90
1626;DHT22;806;48.770;9.156;2022-11-23T03:49:10;5.50;99.90
1626;DHT22;806;48.770;9.156;2022-11-23T03:51:37;5.50;99.90
1626;DHT22;806;48.770;9.156;2022-11-23T03:54:05;5.40;99.90
1626;DHT22;806;48.770;9.156;2022-11-23T03:56:32;5.40;99.90
1626;DHT22;806;48.770;9.156;2022-11-23T03:58:59;5.50;99.90
1626;DHT22;806;48.770;9.156;2022-11-23T04:01:26;5.50;99.90
1626;DHT22;806;48.770;9.156;2022-11-23T04:03:53;5.40;99.90
1626;DHT22;806;48.770;9.156;2022-11-23T04:06:19;5.40;99.90
1626;DHT22;806;48.770;9.156;2022-11-23T04:08:46;5.40;99.90
1626;DHT22;806;48.770;9.156;2022-11-23T04:11:14;5.40;99.90
1626;DHT22;806;48.770;9.156;2022-11-23T04:13:41;5.40;99.90
1626;DHT22;806;48.770;9.156;2022-11-23T04:16:08;5.30;99.90
1626;DHT22;806;48.770;9.156;2022-11-23T04:18:35;5.30;99.90
1626;DHT22;806;48.770;9.156;2022-11-23T04:21:02;5.30;99.90
1626;DHT22;806;48.770;9.156;2022-11-23T04:23:28;5.20;99.90
1626;DHT22;806;48.770;9.156;2022-11-23T04:25:55;5.20;99.90
1626;DHT22;806;48.770;9.156;2022-11-23T04:28:23;5.20;99.90
1626;DHT22;806;48.770;9.156;2022-11-23T04:30:50;5.30;99.90
1626;DHT22;806;48.770;9.156;2022-11-23T04:33:17;5.20;99.90
1626;DHT22;806;48.770;9.156;2022-11-23T04:35:44;5.30;99.90
1626;DHT22;806;48.770;9.156;2022-11-23T04:38:11;5.30;99.90
1626;DHT22;806;48.770;9.156;2022-11-23T04:40:38;5.30;99.90
1626;DHT22;806;48.770;9.156;2022-11-23T04:43:04;5.20;99.90
1626;DHT22;806;48.770;9.156;2022-11-23T04:45:37;5.20;99.90
1626;DHT22;806;48.770;9.156;2022-11-23T04:48:04;5.20;99.90
1626;DHT22;806;48.770;9.156;2022-11-23T04:50:31;5.10;99.90
1626;DHT22;806;48.770;9.156;2022-11-23T04:52:58;5.00;99.90
1626;DHT22;806;48.770;9.156;2022-11-23T04:55:25;4.90;99.90
1626;DHT22;806;48.770;9.156;2022-11-23T04:57:52;4.90;99.90
1626;DHT22;806;48.770;9.156;2022-11-23T05:00:19;4.90;99.90
1626;DHT22;806;48.770;9.156;2022-11-23T05:02:47;4.90;99.90
1626;DHT22;806;48.770;9.156;2022-11-23T05:05:14;4.90;99.90
1626;DHT22;806;48.770;9.156;2022-11-23T05:07:41;4.90;99.90
1626;DHT22;806;48.770;9.156;2022-11-23T05:10:08;4.90;99.90
1626;DHT22;806;48.770;9.156;2022-11-23T05:12:35;5.00;99.90
1626;DHT22;806;48.770;9.156;2022-11-23T05:15:02;5.00;99.90
1626;DHT22;806;48.770;9.156;2022-11-23T05:17:29;5.10;99.90
1626;DHT22;806;48.770;9.156;2022-11-23T05:19:59;5.10;99.90
1626;DHT22;806;48.770;9.156;2022-11-23T05:22:26;5.10;99.90
1626;DHT22;806;48.770;9.156;2022-11-23T05:24:53;5.10;99.90
1626;DHT22;806;48.770;9.156;2022-11-23T05:27:19;5.10;99.90
1626;DHT22;806;48.770;9.156;2022-11-23T05:29:46;5.10;99.90
1626;DHT22;806;48.770;9.156;2022-11-23T05:32:13;5.10;99.90
1626;DHT22;806;48.770;9.156;2022-11-23T05:34:40;5.20;99.90
1626;DHT22;806;48.770;9.156;2022-11-23T05:37:08;5.20;99.90
1626;DHT22;806;48.770;9.156;2022-11-23T05:39:35;5.30;99.90
1626;DHT22;806;48.770;9.156;2022-11-23T05:42:02;5.30;99.90
1626;DHT22;806;48.770;9.156;2022-11-23T05:44:29;5.30;99.90
1626;DHT22;806;48.770;9.156;2022-11-23T05:46:56;5.40;99.90
1626;DHT22;806;48.770;9.156;2022-11-23T05:49:23;5.60;99.90
1626;DHT22;806;48.770;9.156;2022-11-23T05:51:49;5.60;99.90
1626;DHT22;806;48.770;9.156;2022-11-23T05:54:18;5.60;99.90
1626;DHT22;806;48.770;9.156;2022-11-23T05:56:44;5.60;99.90
1626;DHT22;806;48.770;9.156;2022-11-23T05:59:11;5.70;99.90
1626;DHT22;806;48.770;9.156;2022-11-23T06:01:38;5.70;99.90
1626;DHT22;806;48.770;9.156;2022-11-23T06:04:05;5.70;99.90
1626;DHT22;806;48.770;9.156;2022-11-23T06:06:32;5.70;99.90
1626;DHT22;806;48.770;9.156;2022-11-23T06:08:59;5.70;99.90
1626;DHT22;806;48.770;9.156;2022-11-23T06:11:27;5.70;99.90
1626;DHT22;806;48.770;9.156;2022-11-23T06:13:55;5.60;99.90
1626;DHT22;806;48.770;9.156;2022-11-23T06:16:22;5.60;99.90
1626;DHT22;806;48.770;9.156;2022-11-23T06:18:49;5.50;99.90
1626;DHT22;806;48.770;9.156;2022-11-23T06:21:16;5.50;99.90
1626;DHT22;806;48.770;9.156;2022-11-23T06:23:43;5.50;99.90
1626;DHT22;806;48.770;9.156;2022-11-23T06:26:11;5.40;99.90
1626;DHT22;806;48.770;9.156;2022-11-23T06:28:40;5.40;99.90
1626;DHT22;806;48.770;9.156;2022-11-23T06:31:07;5.40;99.90
1626;DHT22;806;48.770;9.156;2022-11-23T06:33:34;5.40;99.90
1626;DHT22;806;48.770;9.156;2022-11-23T06:36:02;5.40;99.90
1626;DHT22;806;48.770;9.156;2022-11-23T06:38:29;5.30;99.90
1626;DHT22;806;48.770;9.156;2022-11-23T06:40:57;5.30;99.90
1626;DHT22;806;48.770;9.156;2022-11-23T06:43:24;5.30;99.90
1626;DHT22;806;48.770;9.156;2022-11-23T06:45:52;5.30;99.90
1626;DHT22;806;48.770;9.156;2022-11-23T06:48:19;5.30;99.90
1626;DHT22;806;48.770;9.156;2022-11-23T06:50:46;5.30;99.90
1626;DHT22;806;48.770;9.156;2022-11-23T06:53:13;5.30;99.90
1626;DHT22;806;48.770;9.156;2022-11-23T06:55:40;5.30;99.90
1626;DHT22;806;48.770;9.156;2022-11-23T06:58:08;5.30;99.90
1626;DHT22;806;48.770;9.156;2022-11-23T07:00:35;5.30;99.90
1626;DHT22;806;48.770;9.156;2022-11-23T07:03:03;5.30;99.90
1626;DHT22;806;48.770;9.156;2022-11-23T07:05:30;5.30;99.90
1626;DHT22;806;48.770;9.156;2022-11-23T07:07:57;5.20;99.90
1626;DHT22;806;48.770;9.156;2022-11-23T07:10:23;5.20;99.90
1626;DHT22;806;48.770;9.156;2022-11-23T07:12:51;5.20;99.90
1626;DHT22;806;48.770;9.156;2022-11-23T07:15:18;5.30;99.90
1626;DHT22;806;48.770;9.156;2022-11-23T07:17:45;5.30;99.90
1626;DHT22;806;48.770;9.156;2022-11-23T07:20:13;5.30;99.90
1626;DHT22;806;48.770;9.156;2022-11-23T07:22:40;5.40;99.90
1626;DHT22;806;48.770;9.156;2022-11-23T07:25:07;5.30;99.90
1626;DHT22;806;48.770;9.156;2022-11-23T07:27:36;5.30;99.90
1626;DHT22;806;48.770;9.156;2022-11-23T07:30:03;5.30;99.90
1626;DHT22;806;48.770;9.156;2022-11-23T07:32:30;5.30;99.90
1626;DHT22;806;48.770;9.156;2022-11-23T07:34:57;5.30;99.90
1626;DHT22;806;48.770;9.156;2022-11-23T07:37:25;5.30;99.90
1626;DHT22;806;48.770;9.156;2022-11-23T07:39:52;5.30;99.90
1626;DHT22;806;48.770;9.156;2022-11-23T07:42:19;5.30;99.90
1626;DHT22;806;48.770;9.156;2022-11-23T07:44:46;5.30;99.90
1626;DHT22;806;48.770;9.156;2022-11-23T07:47:13;5.30;99.90
1626;DHT22;806;48.770;9.156;2022-11-23T07:49:40;5.40;99.90
1626;DHT22;806;48.770;9.156;2022-11-23T07:52:07;5.40;99.90
1626;DHT22;806;48.770;9.156;2022-11-23T07:54:35;5.40;99.90
1626;DHT22;806;48.770;9.156;2022-11-23T07:57:02;5.50;99.90
1626;DHT22;806;48.770;9.156;2022-11-23T07:59:28;5.50;99.90
1626;DHT22;806;48.770;9.156;2022-11-23T08:01:55;5.60;99.90
1626;DHT22;806;48.770;9.156;2022-11-23T08:04:22;5.60;99.90
1626;DHT22;806;48.770;9.156;2022-11-23T08:06:49;5.70;99.90
1626;DHT22;806;48.770;9.156;2022-11-23T08:09:16;5.70;99.90
1626;DHT22;806;48.770;9.156;2022-11-23T08:11:45;5.80;99.90
1626;DHT22;806;48.770;9.156;2022-11-23T08:14:12;5.80;99.90
1626;DHT22;806;48.770;9.156;2022-11-23T08:16:39;5.90;99.90
1626;DHT22;806;48.770;9.156;2022-11-23T08:19:06;5.90;98.40
1626;DHT22;806;48.770;9.156;2022-11-23T08:21:33;6.00;94.00
1626;DHT22;806;48.770;9.156;2022-11-23T08:24:00;6.10;93.80
1626;DHT22;806;48.770;9.156;2022-11-23T08:26:26;6.00;87.50
1626;DHT22;806;48.770;9.156;2022-11-23T08:28:55;6.10;90.90
1626;DHT22;806;48.770;9.156;2022-11-23T08:31:22;6.10;83.20
1626;DHT22;806;48.770;9.156;2022-11-23T08:33:49;6.10;79.90
1626;DHT22;806;48.770;9.156;2022-11-23T08:36:16;6.20;83.90
1626;DHT22;806;48.770;9.156;2022-11-23T08:38:43;6.20;80.10
1626;DHT22;806;48.770;9.156;2022-11-23T08:41:10;6.20;71.30
1626;DHT22;806;48.770;9.156;2022-11-23T08:43:36;6.30;73.70
1626;DHT22;806;48.770;9.156;2022-11-23T08:46:05;6.30;70.80
1626;DHT22;806;48.770;9.156;2022-11-23T08:48:31;6.30;67.80
1626;DHT22;806;48.770;9.156;2022-11-23T08:50:58;6.40;54.00
1626;DHT22;806;48.770;9.156;2022-11-23T08:53:25;6.50;61.60
1626;DHT22;806;48.770;9.156;2022-11-23T08:55:52;6.50;42.60
1626;DHT22;806;48.770;9.156;2022-11-23T08:58:20;6.60;37.30
1626;DHT22;806;48.770;9.156;2022-11-23T09:00:47;6.60;32.60
1626;DHT22;806;48.770;9.156;2022-11-23T09:03:15;6.70;24.90
1626;DHT22;806;48.770;9.156;2022-11-23T09:05:42;6.70;23.40
1626;DHT22;806;48.770;9.156;2022-11-23T09:08:09;6.70;20.10
1626;DHT22;806;48.770;9.156;2022-11-23T09:10:36;6.70;16.10
1626;DHT22;806;48.770;9.156;2022-11-23T09:13:03;6.70;1.00
1626;DHT22;806;48.770;9.156;2022-11-23T09:15:30;6.70;6.80
1626;DHT22;806;48.770;9.156;2022-11-23T09:17:56;6.80;11.90
1626;DHT22;806;48.770;9.156;2022-11-23T09:20:25;6.90;1.00
1626;DHT22;806;48.770;9.156;2022-11-23T09:22:52;7.00;1.00
1626;DHT22;806;48.770;9.156;2022-11-23T09:25:20;7.00;1.00
1626;DHT22;806;48.770;9.156;2022-11-23T09:27:47;7.00;1.00
1626;DHT22;806;48.770;9.156;2022-11-23T09:30:15;7.10;1.00
1626;DHT22;806;48.770;9.156;2022-11-23T09:32:42;7.10;1.00
1626;DHT22;806;48.770;9.156;2022-11-23T09:35:09;7.10;1.00
1626;DHT22;806;48.770;9.156;2022-11-23T09:37:37;7.20;1.00
1626;DHT22;806;48.770;9.156;2022-11-23T09:40:05;7.20;1.00
1626;DHT22;806;48.770;9.156;2022-11-23T09:42:58;7.30;1.00
1626;DHT22;806;48.770;9.156;2022-11-23T09:45:34;7.30;1.00
1626;DHT22;806;48.770;9.156;2022-11-23T09:48:24;7.40;1.00
1626;DHT22;806;48.770;9.156;2022-11-23T09:50:58;7.40;1.00
1626;DHT22;806;48.770;9.156;2022-11-23T09:53:31;7.50;1.00
1626;DHT22;806;48.770;9.156;2022-11-23T09:55:58;7.50;1.00
1626;DHT22;806;48.770;9.156;2022-11-23T09:58:29;7.60;1.00
1626;DHT22;806;48.770;9.156;2022-11-23T10:01:00;7.70;1.00
1626;DHT22;806;48.770;9.156;2022-11-23T10:03:28;7.80;1.00
1626;DHT22;806;48.770;9.156;2022-11-23T10:06:04;7.80;1.00
1626;DHT22;806;48.770;9.156;2022-11-23T10:08:42;7.80;1.00
1626;DHT22;806;48.770;9.156;2022-11-23T10:11:34;7.90;1.00
1626;DHT22;806;48.770;9.156;2022-11-23T10:14:14;7.90;1.00
1626;DHT22;806;48.770;9.156;2022-11-23T10:16:53;8.00;1.00
1626;DHT22;806;48.770;9.156;2022-11-23T10:19:28;8.00;1.00
1626;DHT22;806;48.770;9.156;2022-11-23T10:22:04;8.00;1.00
1626;DHT22;806;48.770;9.156;2022-11-23T10:24:38;8.00;1.00
1626;DHT22;806;48.770;9.156;2022-11-23T10:27:12;8.10;1.00
1626;DHT22;806;48.770;9.156;2022-11-23T10:29:41;8.10;1.00
1626;DHT22;806;48.770;9.156;2022-11-23T10:32:19;8.20;1.00
1626;DHT22;806;48.770;9.156;2022-11-23T10:34:57;8.20;1.00
1626;DHT22;806;48.770;9.156;2022-11-23T10:37:24;8.20;1.00
1626;DHT22;806;48.770;9.156;2022-11-23T10:39:52;8.30;1.00
1626;DHT22;806;48.770;9.156;2022-11-23T10:42:23;8.40;1.00
1626;DHT22;806;48.770;9.156;2022-11-23T10:44:54;8.50;1.00
1626;DHT22;806;48.770;9.156;2022-11-23T10:47:37;8.40;1.00
1626;DHT22;806;48.770;9.156;2022-11-23T10:50:20;8.50;1.00
1626;DHT22;806;48.770;9.156;2022-11-23T10:52:53;8.50;1.00
1626;DHT22;806;48.770;9.156;2022-11-23T10:55:25;8.50;1.00
1626;DHT22;806;48.770;9.156;2022-11-23T10:57:53;8.60;99.90
1626;DHT22;806;48.770;9.156;2022-11-23T11:00:22;8.60;99.90
1626;DHT22;806;48.770;9.156;2022-11-23T11:02:51;8.60;1.00
1626;DHT22;806;48.770;9.156;2022-11-23T11:05:27;8.70;1.00
1626;DHT22;806;48.770;9.156;2022-11-23T11:07:56;8.70;1.00
1626;DHT22;806;48.770;9.156;2022-11-23T11:10:40;8.70;1.00
1626;DHT22;806;48.770;9.156;2022-11-23T11:13:25;8.80;1.00
1626;DHT22;806;48.770;9.156;2022-11-23T11:15:54;8.90;1.00
1626;DHT22;806;48.770;9.156;2022-11-23T11:18:24;8.90;1.00
1626;DHT22;806;48.770;9.156;2022-11-23T11:20:56;9.00;99.90
1626;DHT22;806;48.770;9.156;2022-11-23T11:23:24;9.00;1.00
1626;DHT22;806;48.770;9.156;2022-11-23T11:26:04;9.00;99.90
1626;DHT22;806;48.770;9.156;2022-11-23T11:28:36;9.10;1.00
1626;DHT22;806;48.770;9.156;2022-11-23T11:31:24;9.10;1.00
1626;DHT22;806;48.770;9.156;2022-11-23T11:33:56;9.10;99.90
1626;DHT22;806;48.770;9.156;2022-11-23T11:36:27;9.10;1.00
1626;DHT22;806;48.770;9.156;2022-11-23T11:38:58;9.20;99.90
1626;DHT22;806;48.770;9.156;2022-11-23T11:41:29;9.20;99.90
1626;DHT22;806;48.770;9.156;2022-11-23T11:43:58;9.20;1.00
1626;DHT22;806;48.770;9.156;2022-11-23T11:46:35;9.30;1.00
1626;DHT22;806;48.770;9.156;2022-11-23T11:49:07;9.30;1.00
1626;DHT22;806;48.770;9.156;2022-11-23T11:51:39;9.30;1.00
1626;DHT22;806;48.770;9.156;2022-11-23T11:54:15;9.40;99.90
1626;DHT22;806;48.770;9.156;2022-11-23T11:56:46;9.40;1.00
1626;DHT22;806;48.770;9.156;2022-11-23T11:59:18;9.40;21.10
1626;DHT22;806;48.770;9.156;2022-11-23T12:01:54;9.50;1.00
1626;DHT22;806;48.770;9.156;2022-11-23T12:04:26;9.40;1.00
1626;DHT22;806;48.770;9.156;2022-11-23T12:07:01;9.40;99.90
1626;DHT22;806;48.770;9.156;2022-11-23T12:09:35;9.40;56.60
1626;DHT22;806;48.770;9.156;2022-11-23T12:12:11;9.50;1.00
1626;DHT22;806;48.770;9.156;2022-11-23T12:14:39;9.50;52.80
1626;DHT22;806;48.770;9.156;2022-11-23T12:17:12;9.60;99.90
1626;DHT22;806;48.770;9.156;2022-11-23T12:19:49;9.60;99.90
1626;DHT22;806;48.770;9.156;2022-11-23T12:22:38;9.60;1.00
1626;DHT22;806;48.770;9.156;2022-11-23T12:25:15;9.60;99.90
1626;DHT22;806;48.770;9.156;2022-11-23T12:27:55;9.60;99.90
1626;DHT22;806;48.770;9.156;2022-11-23T12:30:29;9.50;99.90
1626;DHT22;806;48.770;9.156;2022-11-23T12:33:17;9.50;99.90
1626;DHT22;806;48.770;9.156;2022-11-23T12:36:05;9.60;99.90
1626;DHT22;806;48.770;9.156;2022-11-23T12:38:41;9.60;99.90
1626;DHT22;806;48.770;9.156;2022-11-23T12:41:23;9.60;99.90
1626;DHT22;806;48.770;9.156;2022-11-23T12:46:51;9.60;99.90
1626;DHT22;806;48.770;9.156;2022-11-23T12:49:32;9.60;99.90
1626;DHT22;806;48.770;9.156;2022-11-23T12:52:17;9.60;99.90
1626;DHT22;806;48.770;9.156;2022-11-23T12:54:55;9.60;99.90
1626;DHT22;806;48.770;9.156;2022-11-23T12:57:30;9.70;99.90
1626;DHT22;806;48.770;9.156;2022-11-23T13:00:04;9.70;99.90
1626;DHT22;806;48.770;9.156;2022-11-23T13:03:00;9.70;99.90
1626;DHT22;806;48.770;9.156;2022-11-23T13:05:54;9.70;99.90
1626;DHT22;806;48.770;9.156;2022-11-23T13:08:47;9.70;99.90
1626;DHT22;806;48.770;9.156;2022-11-23T13:11:27;9.60;99.90
1626;DHT22;806;48.770;9.156;2022-11-23T13:14:06;9.60;99.90
1626;DHT22;806;48.770;9.156;2022-11-23T13:17:16;9.70;99.90
1626;DHT22;806;48.770;9.156;2022-11-23T13:22:37;9.70;99.90
1626;DHT22;806;48.770;9.156;2022-11-23T13:25:23;9.70;99.90
1626;DHT22;806;48.770;9.156;2022-11-23T13:27:55;9.60;99.90
1626;DHT22;806;48.770;9.156;2022-11-23T13:30:25;9.60;99.90
1626;DHT22;806;48.770;9.156;2022-11-23T13:32:56;9.60;99.90
1626;DHT22;806;48.770;9.156;2022-11-23T13:35:58;9.60;99.90
1626;DHT22;806;48.770;9.156;2022-11-23T13:38:37;9.50;99.90
1626;DHT22;806;48.770;9.156;2022-11-23T13:44:19;9.60;99.90
1626;DHT22;806;48.770;9.156;2022-11-23T13:47:01;9.60;99.90
1626;DHT22;806;48.770;9.156;2022-11-23T13:49:33;9.60;1.00
1626;DHT22;806;48.770;9.156;2022-11-23T13:52:19;9.60;99.90
1626;DHT22;806;48.770;9.156;2022-11-23T13:54:58;9.50;1.00
1626;DHT22;806;48.770;9.156;2022-11-23T13:57:26;9.50;1.00
1626;DHT22;806;48.770;9.156;2022-11-23T13:59:53;9.50;1.00
1626;DHT22;806;48.770;9.156;2022-11-23T14:02:26;9.50;93.50
1626;DHT22;806;48.770;9.156;2022-11-23T14:07:55;9.40;99.90
1626;DHT22;806;48.770;9.156;2022-11-23T14:10:24;9.40;86.00
1626;DHT22;806;48.770;9.156;2022-11-23T14:12:57;9.30;99.90
1626;DHT22;806;48.770;9.156;2022-11-23T14:15:29;9.30;1.00
1626;DHT22;806;48.770;9.156;2022-11-23T14:18:17;9.30;19.70
1626;DHT22;806;48.770;9.156;2022-11-23T14:21:06;9.30;50.20
1626;DHT22;806;48.770;9.156;2022-11-23T14:26:53;9.20;1.00
1626;DHT22;806;48.770;9.156;2022-11-23T14:29:28;9.20;99.90
1626;DHT22;806;48.770;9.156;2022-11-23T14:32:15;9.20;1.00
1626;DHT22;806;48.770;9.156;2022-11-23T14:35:02;9.20;1.00
1626;DHT22;806;48.770;9.156;2022-11-23T14:37:40;9.20;1.00
1626;DHT22;806;48.770;9.156;2022-11-23T14:40:18;9.10;1.00
1626;DHT22;806;48.770;9.156;2022-11-23T14:42:51;9.20;1.00
1626;DHT22;806;48.770;9.156;2022-11-23T14:45:20;9.20;9.20
1626;DHT22;806;48.770;9.156;2022-11-23T14:47:47;9.20;1.00
1626;DHT22;806;48.770;9.156;2022-11-23T14:50:22;9.10;1.00
1626;DHT22;806;48.770;9.156;2022-11-23T14:52:49;9.10;1.00
1626;DHT22;806;48.770;9.156;2022-11-23T14:55:21;9.10;1.00
1626;DHT22;806;48.770;9.156;2022-11-23T14:57:53;9.10;1.00
1626;DHT22;806;48.770;9.156;2022-11-23T15:00:25;9.10;1.00
1626;DHT22;806;48.770;9.156;2022-11-23T15:02:54;9.10;99.90
1626;DHT22;806;48.770;9.156;2022-11-23T15:05:23;9.10;1.00
1626;DHT22;806;48.770;9.156;2022-11-23T15:07:56;9.00;1.00
1626;DHT22;806;48.770;9.156;2022-11-23T15:10:32;9.00;1.00
1626;DHT22;806;48.770;9.156;2022-11-23T15:13:16;9.00;1.00
1626;DHT22;806;48.770;9.156;2022-11-23T15:15:44;9.00;1.00
1626;DHT22;806;48.770;9.156;2022-11-23T15:18:12;8.90;99.90
1626;DHT22;806;48.770;9.156;2022-11-23T15:20:42;8.90;1.00
1626;DHT22;806;48.770;9.156;2022-11-23T15:23:17;8.80;1.00
1626;DHT22;806;48.770;9.156;2022-11-23T15:25:50;8.80;1.00
1626;DHT22;806;48.770;9.156;2022-11-23T15:28:17;8.80;1.00
1626;DHT22;806;48.770;9.156;2022-11-23T15:30:46;8.80;1.00
1626;DHT22;806;48.770;9.156;2022-11-23T15:33:12;8.80;1.00
1626;DHT22;806;48.770;9.156;2022-11-23T15:35:39;8.70;1.00
1626;DHT22;806;48.770;9.156;2022-11-23T15:38:09;8.70;1.00
1626;DHT22;806;48.770;9.156;2022-11-23T15:40:38;8.60;1.00
1626;DHT22;806;48.770;9.156;2022-11-23T15:43:09;8.50;75.80
1626;DHT22;806;48.770;9.156;2022-11-23T15:45:58;8.50;99.90
1626;DHT22;806;48.770;9.156;2022-11-23T15:48:28;8.50;99.90
1626;DHT22;806;48.770;9.156;2022-11-23T15:50:56;8.50;1.00
1626;DHT22;806;48.770;9.156;2022-11-23T15:53:23;8.60;99.90
1626;DHT22;806;48.770;9.156;2022-11-23T15:55:51;8.60;21.50
1626;DHT22;806;48.770;9.156;2022-11-23T15:58:19;8.60;1.00
1626;DHT22;806;48.770;9.156;2022-11-23T16:00:47;8.60;1.00
1626;DHT22;806;48.770;9.156;2022-11-23T16:03:28;8.60;99.90
1626;DHT22;806;48.770;9.156;2022-11-23T16:08:50;8.80;1.00
1626;DHT22;806;48.770;9.156;2022-11-23T16:11:21;8.80;99.90
1626;DHT22;806;48.770;9.156;2022-11-23T16:13:50;8.80;99.90
1626;DHT22;806;48.770;9.156;2022-11-23T16:16:19;8.70;99.90
1626;DHT22;806;48.770;9.156;2022-11-23T16:18:48;8.70;1.00
1626;DHT22;806;48.770;9.156;2022-11-23T16:21:18;8.70;99.90
1626;DHT22;806;48.770;9.156;2022-11-23T16:23:49;8.70;1.00
1626;DHT22;806;48.770;9.156;2022-11-23T16:26:18;8.80;1.00
1626;DHT22;806;48.770;9.156;2022-11-23T16:28:52;8.80;1.00
1626;DHT22;806;48.770;9.156;2022-11-23T16:31:26;8.80;1.00
1626;DHT22;806;48.770;9.156;2022-11-23T16:33:53;8.80;1.50
1626;DHT22;806;48.770;9.156;2022-11-23T16:36:21;8.80;99.90
1626;DHT22;806;48.770;9.156;2022-11-23T16:38:47;8.80;99.90
1626;DHT22;806;48.770;9.156;2022-11-23T16:41:14;8.90;1.00
1626;DHT22;806;48.770;9.156;2022-11-23T16:43:41;8.90;1.00
1626;DHT22;806;48.770;9.156;2022-11-23T16:46:10;8.90;99.90
1626;DHT22;806;48.770;9.156;2022-11-23T16:48:42;9.00;1.00
1626;DHT22;806;48.770;9.156;2022-11-23T16:51:10;9.10;99.90
1626;DHT22;806;48.770;9.156;2022-11-23T16:53:41;9.10;1.00
1626;DHT22;806;48.770;9.156;2022-11-23T16:56:16;9.10;99.90
1626;DHT22;806;48.770;9.156;2022-11-23T16:58:44;9.10;1.00
1626;DHT22;806;48.770;9.156;2022-11-23T17:01:17;9.00;1.00
1626;DHT22;806;48.770;9.156;2022-11-23T17:03:44;9.00;1.00
1626;DHT22;806;48.770;9.156;2022-11-23T17:06:11;8.90;1.00
1626;DHT22;806;48.770;9.156;2022-11-23T17:08:39;8.80;1.00
1626;DHT22;806;48.770;9.156;2022-11-23T17:11:09;8.70;99.90
1626;DHT22;806;48.770;9.156;2022-11-23T17:13:38;8.70;1.00
1626;DHT22;806;48.770;9.156;2022-11-23T17:16:07;8.60;1.00
1626;DHT22;806;48.770;9.156;2022-11-23T17:18:35;8.60;1.00